createdAt,value
2018-03-20T00:00:34.268Z,22.52
2018-03-20T00:03:01.733Z,23.17
2018-03-20T00:05:29.200Z,24.20
2018-03-20T00:07:57.484Z,25.45
2018-03-20T00:10:24.960Z,23.38
2018-03-20T00:12:52.424Z,23.02
2018-03-20T00:15:19.921Z,26.92
2018-03-20T00:17:47.395Z,24.85
2018-03-20T00:20:14.872Z,22.80
2018-03-20T00:22:42.338Z,21.87
2018-03-20T00:25:09.824Z,24.50
2018-03-20T00:27:37.292Z,25.40
2018-03-20T00:30:05.549Z,25.50
2018-03-20T00:32:33.026Z,22.62
2018-03-20T00:35:01.256Z,22.73
2018-03-20T00:37:28.744Z,23.00
2018-03-20T00:39:56.240Z,23.55
2018-03-20T00:42:23.736Z,27.23
2018-03-20T00:44:51.221Z,22.73
2018-03-20T00:47:18.686Z,24.00
2018-03-20T00:49:46.157Z,22.33
2018-03-20T00:52:14.388Z,21.80
2018-03-20T00:54:41.845Z,23.23
2018-03-20T00:57:09.311Z,22.20
2018-03-20T00:59:36.792Z,20.55
2018-03-20T01:02:04.251Z,19.58
2018-03-20T01:04:32.468Z,20.50
2018-03-20T01:06:59.953Z,24.80
2018-03-20T01:09:27.420Z,21.60
2018-03-20T01:11:54.879Z,20.67
2018-03-20T01:14:22.337Z,20.75
2018-03-20T01:16:49.804Z,24.02
2018-03-20T01:19:18.030Z,21.80
2018-03-20T01:21:45.497Z,21.80
2018-03-20T01:24:12.984Z,21.00
2018-03-20T01:26:40.451Z,22.33
2018-03-20T01:29:07.920Z,21.85
2018-03-20T01:31:36.173Z,22.92
2018-03-20T01:34:03.640Z,21.02
2018-03-20T01:36:31.133Z,21.20
2018-03-20T01:38:58.600Z,21.52
2018-03-20T01:41:26.065Z,22.65
2018-03-20T01:43:54.314Z,24.00
2018-03-20T01:46:21.769Z,21.40
2018-03-20T01:48:50.024Z,20.85
2018-03-20T01:51:17.481Z,23.30
2018-03-20T01:53:44.948Z,23.15
2018-03-20T01:56:13.185Z,22.55
2018-03-20T01:58:40.657Z,20.75
2018-03-20T02:01:08.204Z,25.92
2018-03-20T02:03:35.690Z,27.15
2018-03-20T02:06:03.165Z,25.25
2018-03-20T02:08:31.405Z,20.60
2018-03-20T02:10:58.864Z,21.87
2018-03-20T02:13:26.336Z,22.27
2018-03-20T02:15:53.803Z,26.15
2018-03-20T02:18:22.032Z,23.58
2018-03-20T02:20:49.490Z,22.15
2018-03-20T02:23:16.946Z,21.23
2018-03-20T02:25:44.400Z,22.00
2018-03-20T02:28:11.857Z,24.08
2018-03-20T02:30:39.312Z,19.23
2018-03-20T02:33:06.773Z,22.60
2018-03-20T02:35:34.230Z,20.58
2018-03-20T02:38:01.677Z,21.85
2018-03-20T02:40:29.892Z,24.35
2018-03-20T02:42:57.357Z,18.17
2018-03-20T02:45:24.837Z,20.90
2018-03-20T02:47:53.060Z,22.27
2018-03-20T02:50:20.537Z,19.50
2018-03-20T02:52:48.005Z,20.62
2018-03-20T02:55:15.459Z,19.42
2018-03-20T02:57:42.924Z,17.20
2018-03-20T03:00:10.382Z,19.25
2018-03-20T03:02:37.867Z,19.62
2018-03-20T03:05:05.373Z,20.20
2018-03-20T03:07:32.873Z,20.35
2018-03-20T03:10:01.119Z,19.58
2018-03-20T03:12:28.576Z,21.50
2018-03-20T03:14:56.066Z,19.45
2018-03-20T03:17:24.305Z,17.25
2018-03-20T03:19:51.772Z,21.25
2018-03-20T03:22:19.231Z,18.73
2018-03-20T03:24:46.696Z,22.95
2018-03-20T03:27:14.940Z,19.70
2018-03-20T03:29:42.405Z,23.58
2018-03-20T03:32:09.872Z,21.92
2018-03-20T03:34:37.336Z,22.60
2018-03-20T03:37:04.800Z,22.98
2018-03-20T03:39:33.058Z,22.13
2018-03-20T03:42:00.525Z,20.42
2018-03-20T03:44:27.993Z,21.00
2018-03-20T03:46:56.233Z,23.15
2018-03-20T03:49:23.690Z,19.33
2018-03-20T03:51:51.166Z,21.67
2018-03-20T03:54:18.608Z,20.55
2018-03-20T03:56:46.096Z,21.33
2018-03-20T03:59:14.348Z,20.90
2018-03-20T04:01:41.820Z,20.12
2018-03-20T04:04:09.272Z,21.50
2018-03-20T04:06:36.781Z,15.88
2018-03-20T04:09:04.228Z,19.17
2018-03-20T04:11:31.712Z,17.25
2018-03-20T04:13:59.185Z,15.30
2018-03-20T04:16:26.636Z,18.00
2018-03-20T04:18:54.108Z,19.33
2018-03-20T04:21:21.572Z,16.00
2018-03-20T04:23:49.060Z,17.30
2018-03-20T04:26:17.300Z,16.65
2018-03-20T04:28:44.764Z,15.93
2018-03-20T04:31:12.227Z,14.70
2018-03-20T04:33:39.705Z,15.77
2018-03-20T04:36:07.936Z,16.37
2018-03-20T04:38:35.421Z,15.23
2018-03-20T04:41:02.872Z,14.20
2018-03-20T04:43:30.340Z,14.50
2018-03-20T04:45:57.811Z,17.40
2018-03-20T04:48:26.041Z,16.73
2018-03-20T04:50:53.500Z,15.43
2018-03-20T04:53:20.971Z,14.82
2018-03-20T04:55:48.424Z,13.95
2018-03-20T04:58:15.901Z,15.95
2018-03-20T05:00:43.366Z,17.33
2018-03-20T05:03:11.600Z,15.82
2018-03-20T05:05:39.056Z,15.05
2018-03-20T05:08:06.566Z,15.90
2018-03-20T05:10:34.818Z,15.35
2018-03-20T05:13:02.294Z,17.62
2018-03-20T05:15:30.538Z,16.80
2018-03-20T05:17:57.992Z,16.87
2018-03-20T05:20:31.157Z,14.30
2018-03-20T05:26:05.595Z,16.58
2018-03-20T05:28:33.035Z,18.20
2018-03-20T05:31:00.493Z,19.27
2018-03-20T05:33:27.944Z,21.23
2018-03-20T05:35:55.403Z,18.25
2018-03-20T05:38:22.859Z,19.05
2018-03-20T05:40:50.313Z,19.62
2018-03-20T05:43:17.766Z,19.80
2018-03-20T05:45:45.993Z,23.58
2018-03-20T05:48:29.227Z,26.00
2018-03-20T05:54:04.364Z,24.08
2018-03-20T05:56:31.840Z,27.02
2018-03-20T05:58:59.272Z,25.88
2018-03-20T06:01:26.736Z,26.48
2018-03-20T06:03:54.192Z,28.98
2018-03-20T06:06:21.640Z,28.75
2018-03-20T06:08:49.084Z,32.75
2018-03-20T06:11:16.544Z,25.75
2018-03-20T06:13:44.009Z,27.30
2018-03-20T06:16:11.492Z,25.73
2018-03-20T06:18:38.952Z,24.67
2018-03-20T06:21:06.432Z,23.85
2018-03-20T06:23:33.900Z,25.98
2018-03-20T06:26:02.140Z,26.05
2018-03-20T06:28:29.637Z,24.27
2018-03-20T06:30:57.906Z,23.92
2018-03-20T06:33:25.376Z,22.17
2018-03-20T06:35:53.609Z,22.60
2018-03-20T06:38:21.074Z,23.10
2018-03-20T06:40:48.538Z,24.95
2018-03-20T06:43:15.992Z,22.75
2018-03-20T06:45:43.454Z,22.23
2018-03-20T06:48:10.932Z,21.87
2018-03-20T06:50:39.179Z,24.55
2018-03-20T06:53:06.667Z,26.33
2018-03-20T06:55:34.889Z,22.50
2018-03-20T06:58:02.365Z,22.40
2018-03-20T07:00:29.836Z,21.23
2018-03-20T07:02:57.364Z,19.95
2018-03-20T07:05:24.828Z,21.42
2018-03-20T07:07:52.338Z,17.42
2018-03-20T07:10:19.823Z,19.52
2018-03-20T07:12:47.304Z,21.67
2018-03-20T07:15:14.765Z,19.70
2018-03-20T07:17:42.230Z,19.45
2018-03-20T07:20:09.688Z,18.40
2018-03-20T07:22:37.158Z,18.42
2018-03-20T07:25:04.633Z,17.70
2018-03-20T07:27:32.872Z,17.17
2018-03-20T07:30:00.341Z,17.17
2018-03-20T07:32:27.825Z,19.25
2018-03-20T07:34:56.092Z,16.83
2018-03-20T07:37:24.369Z,15.35
2018-03-20T07:39:52.630Z,12.65
2018-03-20T07:42:20.056Z,15.73
2018-03-20T07:44:47.545Z,14.93
2018-03-20T07:47:15.029Z,16.30
2018-03-20T07:49:42.497Z,14.10
2018-03-20T07:52:09.966Z,14.30
2018-03-20T07:54:37.440Z,13.32
2018-03-20T07:57:04.936Z,13.62
2018-03-20T07:59:32.425Z,15.13
2018-03-20T08:01:59.886Z,12.37
2018-03-20T08:04:27.376Z,13.57
2018-03-20T08:06:54.832Z,10.30
2018-03-20T08:09:22.307Z,11.82
2018-03-20T08:11:49.784Z,12.43
2018-03-20T08:14:17.264Z,12.70
2018-03-20T08:16:44.732Z,16.08
2018-03-20T08:19:12.210Z,11.48
2018-03-20T08:21:39.688Z,10.50
2018-03-20T08:24:07.156Z,9.60
2018-03-20T08:26:34.608Z,10.68
2018-03-20T08:29:02.114Z,12.90
2018-03-20T08:31:29.556Z,11.95
2018-03-20T08:33:57.776Z,9.77
2018-03-20T08:36:25.252Z,12.90
2018-03-20T08:38:52.717Z,12.60
2018-03-20T08:41:20.188Z,9.48
2018-03-20T08:43:47.656Z,11.48
2018-03-20T08:46:15.918Z,9.52
2018-03-20T08:48:43.388Z,10.00
2018-03-20T08:51:11.625Z,10.82
2018-03-20T08:53:39.084Z,9.00
2018-03-20T08:56:06.551Z,9.07
2018-03-20T08:58:34.028Z,10.10
2018-03-20T09:01:01.509Z,9.40
2018-03-20T09:03:28.980Z,8.25
2018-03-20T09:05:56.461Z,11.32
2018-03-20T09:08:23.916Z,10.25
2018-03-20T09:10:51.392Z,8.65
2018-03-20T09:13:18.864Z,9.43
2018-03-20T09:15:46.320Z,11.00
2018-03-20T09:18:13.795Z,9.15
2018-03-20T09:20:42.048Z,7.47
2018-03-20T09:23:09.524Z,8.93
2018-03-20T09:25:36.996Z,10.25
2018-03-20T09:28:05.216Z,13.57
2018-03-20T09:30:32.676Z,12.68
2018-03-20T09:33:00.144Z,10.75
2018-03-20T09:35:27.646Z,10.32
2018-03-20T09:37:55.109Z,9.90
2018-03-20T09:40:23.324Z,9.48
2018-03-20T09:42:50.788Z,10.40
2018-03-20T09:45:18.247Z,9.07
2018-03-20T09:47:45.712Z,10.43
2018-03-20T09:50:13.164Z,8.77
2018-03-20T09:52:40.620Z,13.07
2018-03-20T09:55:08.082Z,8.52
2018-03-20T09:57:35.536Z,8.77
2018-03-20T10:00:03.018Z,9.85
2018-03-20T10:02:30.496Z,11.43
2018-03-20T10:04:58.712Z,10.18
2018-03-20T10:07:26.205Z,9.13
2018-03-20T10:09:53.677Z,7.55
2018-03-20T10:12:21.131Z,11.98
2018-03-20T10:14:48.612Z,10.43
2018-03-20T10:17:16.837Z,10.95
2018-03-20T10:19:44.312Z,7.93
2018-03-20T10:22:11.776Z,7.80
2018-03-20T10:24:39.243Z,7.72
2018-03-20T10:27:07.474Z,16.12
2018-03-20T10:29:34.966Z,10.70
2018-03-20T10:32:02.437Z,10.30
2018-03-20T10:34:29.880Z,8.18
2018-03-20T10:36:57.336Z,9.63
2018-03-20T10:39:24.798Z,9.45
2018-03-20T10:41:52.267Z,10.70
2018-03-20T10:44:20.500Z,10.10
2018-03-20T10:46:47.971Z,9.07
2018-03-20T10:49:15.455Z,11.00
2018-03-20T10:51:43.684Z,10.00
2018-03-20T10:54:11.164Z,9.48
2018-03-20T10:56:38.632Z,11.32
2018-03-20T10:59:06.880Z,9.90
2018-03-20T11:01:40.114Z,11.15
2018-03-20T11:04:08.336Z,10.83
2018-03-20T11:06:35.784Z,12.50
2018-03-20T11:09:03.257Z,8.57
2018-03-20T11:11:30.724Z,9.70
2018-03-20T11:13:58.181Z,9.20
2018-03-20T11:16:25.631Z,9.43
2018-03-20T11:18:53.083Z,8.63
2018-03-20T11:21:20.538Z,9.97
2018-03-20T11:23:47.972Z,11.20
2018-03-20T11:26:15.423Z,12.03
2018-03-20T11:28:42.863Z,9.00
2018-03-20T11:31:10.338Z,11.60
2018-03-20T11:33:37.779Z,12.27
2018-03-20T11:36:05.231Z,12.85
2018-03-20T11:38:33.440Z,14.02
2018-03-20T11:41:00.887Z,12.57
2018-03-20T11:43:28.333Z,10.15
2018-03-20T11:45:55.800Z,14.93
2018-03-20T11:48:23.242Z,14.35
2018-03-20T11:50:50.692Z,17.23
2018-03-20T11:53:18.915Z,14.30
2018-03-20T11:55:46.359Z,15.43
2018-03-20T11:58:13.815Z,16.65
2018-03-20T12:00:41.259Z,20.27
2018-03-20T12:03:08.720Z,15.93
2018-03-20T12:05:36.173Z,17.95
2018-03-20T12:08:15.449Z,17.45
2018-03-20T12:10:42.892Z,15.80
2018-03-20T12:13:10.335Z,15.40
2018-03-20T12:15:37.785Z,15.65
2018-03-20T12:18:05.232Z,14.40
2018-03-20T12:20:32.667Z,16.77
2018-03-20T12:23:00.116Z,13.88
2018-03-20T12:25:28.331Z,14.55
2018-03-20T12:27:55.783Z,15.98
2018-03-20T12:30:23.230Z,15.60
2018-03-20T12:32:50.664Z,13.25
2018-03-20T12:35:18.107Z,16.45
2018-03-20T12:37:45.605Z,12.80
2018-03-20T12:40:13.790Z,12.00
2018-03-20T12:42:41.234Z,13.35
2018-03-20T12:45:08.724Z,12.15
2018-03-20T12:47:36.168Z,15.25
2018-03-20T12:50:03.630Z,11.12
2018-03-20T12:52:31.849Z,11.90
2018-03-20T12:54:59.295Z,12.93
2018-03-20T12:57:26.750Z,13.15
2018-03-20T12:59:54.220Z,16.05
2018-03-20T13:02:21.663Z,13.68
2018-03-20T13:04:49.150Z,13.85
2018-03-20T13:07:16.548Z,14.13
2018-03-20T13:09:44.000Z,13.13
2018-03-20T13:12:11.450Z,15.15
2018-03-20T13:14:38.910Z,16.30
2018-03-20T13:17:06.368Z,24.98
2018-03-20T13:19:33.815Z,15.35
2018-03-20T13:22:01.260Z,16.30
2018-03-20T13:24:28.728Z,14.45
2018-03-20T13:26:56.172Z,13.05
2018-03-20T13:29:23.640Z,13.73
2018-03-20T13:31:51.839Z,19.35
2018-03-20T13:34:19.279Z,16.33
2018-03-20T13:36:46.723Z,16.45
2018-03-20T13:39:14.176Z,15.35
2018-03-20T13:41:41.632Z,13.43
2018-03-20T13:44:09.077Z,16.95
2018-03-20T13:46:37.291Z,14.13
2018-03-20T13:49:04.760Z,14.00
2018-03-20T13:51:32.183Z,13.93
2018-03-20T13:53:59.643Z,13.13
2018-03-20T13:56:27.105Z,17.15
2018-03-20T13:58:54.549Z,14.25
2018-03-20T14:01:22.001Z,16.33
2018-03-20T14:03:49.454Z,13.30
2018-03-20T14:06:17.692Z,15.90
2018-03-20T14:08:45.127Z,14.32
2018-03-20T14:11:12.624Z,13.05
2018-03-20T14:13:40.076Z,14.68
2018-03-20T14:16:07.544Z,14.73
2018-03-20T14:18:35.790Z,13.35
2018-03-20T14:21:03.266Z,17.77
2018-03-20T14:23:30.774Z,15.80
2018-03-20T14:25:58.280Z,16.27
2018-03-20T14:28:25.771Z,14.02
2018-03-20T14:30:54.011Z,16.08
2018-03-20T14:33:21.476Z,16.70
2018-03-20T14:35:48.944Z,15.88
2018-03-20T14:38:17.196Z,16.37
2018-03-20T14:40:44.673Z,21.20
2018-03-20T14:43:12.156Z,17.60
2018-03-20T14:45:39.633Z,17.50
2018-03-20T14:48:07.116Z,18.90
2018-03-20T14:50:34.578Z,20.52
2018-03-20T14:53:02.051Z,26.00
2018-03-20T14:55:29.513Z,19.98
2018-03-20T14:57:56.984Z,20.42
2018-03-20T15:00:24.456Z,20.10
2018-03-20T15:02:51.932Z,19.50
2018-03-20T15:05:19.391Z,22.35
2018-03-20T15:07:46.881Z,21.35
2018-03-20T15:10:14.340Z,18.17
2018-03-20T15:12:41.796Z,18.62
2018-03-20T15:15:09.269Z,17.65
2018-03-20T15:17:36.751Z,15.50
2018-03-20T15:20:04.212Z,18.00
2018-03-20T15:22:32.442Z,17.77
2018-03-20T15:24:59.908Z,17.50
2018-03-20T15:27:27.351Z,16.73
2018-03-20T15:29:54.811Z,16.60
2018-03-20T15:32:22.272Z,17.52
2018-03-20T15:34:49.728Z,14.65
2018-03-20T15:37:17.195Z,16.87
2018-03-20T15:39:44.638Z,13.73
2018-03-20T15:42:12.092Z,14.75
2018-03-20T15:44:39.544Z,15.57
2018-03-20T15:47:06.987Z,13.23
2018-03-20T15:49:34.447Z,14.27
2018-03-20T15:52:01.901Z,17.92
2018-03-20T15:54:29.356Z,12.55
2018-03-20T15:56:56.804Z,11.07
2018-03-20T15:59:24.256Z,22.27
2018-03-20T16:01:51.695Z,13.82
2018-03-20T16:04:19.924Z,16.50
2018-03-20T16:06:47.373Z,12.82
2018-03-20T16:09:14.861Z,12.85
2018-03-20T16:11:42.268Z,14.30
2018-03-20T16:14:09.701Z,12.65
2018-03-20T16:16:37.922Z,11.10
2018-03-20T16:19:05.368Z,12.60
2018-03-20T16:21:32.832Z,14.13
2018-03-20T16:24:01.039Z,13.52
2018-03-20T16:26:28.496Z,11.73
2018-03-20T16:28:55.939Z,13.40
2018-03-20T16:31:23.411Z,13.40
2018-03-20T16:33:50.846Z,15.18
2018-03-20T16:36:18.299Z,14.45
2018-03-20T16:38:45.749Z,12.35
2018-03-20T16:41:13.200Z,15.65
2018-03-20T16:43:40.652Z,16.37
2018-03-20T16:46:08.100Z,17.02
2018-03-20T16:48:35.544Z,15.20
2018-03-20T16:51:03.000Z,14.77
2018-03-20T16:53:30.445Z,16.55
2018-03-20T16:55:57.888Z,17.83
2018-03-20T16:58:25.336Z,13.32
2018-03-20T17:00:52.800Z,16.48
2018-03-20T17:03:20.244Z,17.35
2018-03-20T17:05:47.695Z,16.20
2018-03-20T17:08:15.140Z,17.65
2018-03-20T17:10:42.587Z,15.50
2018-03-20T17:13:10.165Z,13.95
2018-03-20T17:15:37.600Z,14.30
2018-03-20T17:18:05.064Z,14.20
2018-03-20T17:20:32.524Z,14.63
2018-03-20T17:22:59.971Z,14.82
2018-03-20T17:25:28.176Z,15.60
2018-03-20T17:27:55.640Z,14.80
2018-03-20T17:30:23.095Z,17.40
2018-03-20T17:32:50.547Z,19.58
2018-03-20T17:35:17.984Z,16.90
2018-03-20T17:37:45.440Z,47.17
2018-03-20T17:40:12.903Z,21.00
2018-03-20T17:42:40.356Z,23.00
2018-03-20T17:45:07.804Z,27.20
2018-03-20T17:47:35.279Z,29.83
2018-03-20T17:50:02.735Z,20.90
2018-03-20T17:52:30.187Z,19.17
2018-03-20T17:54:57.644Z,22.58
2018-03-20T17:57:25.090Z,20.37
2018-03-20T17:59:52.546Z,19.05
2018-03-20T18:02:20.003Z,15.35
2018-03-20T18:04:47.467Z,18.08
2018-03-20T18:07:14.919Z,15.70
2018-03-20T18:09:42.371Z,19.73
2018-03-20T18:12:09.835Z,19.45
2018-03-20T18:14:37.289Z,21.02
2018-03-20T18:17:04.750Z,17.30
2018-03-20T18:19:32.216Z,16.48
2018-03-20T18:21:59.671Z,16.70
2018-03-20T18:24:27.123Z,16.17
2018-03-20T18:26:54.577Z,15.30
2018-03-20T18:29:22.034Z,14.93
2018-03-20T18:31:49.469Z,16.75
2018-03-20T18:34:16.928Z,19.55
2018-03-20T18:36:44.405Z,16.33
2018-03-20T18:39:12.631Z,18.65
2018-03-20T18:41:40.853Z,15.95
2018-03-20T18:44:08.316Z,19.00
2018-03-20T18:46:35.779Z,17.20
2018-03-20T18:49:03.236Z,18.05
2018-03-20T18:51:30.700Z,16.02
2018-03-20T18:53:58.152Z,16.90
2018-03-20T18:56:25.615Z,17.12
2018-03-20T18:58:53.110Z,21.23
2018-03-20T19:01:20.551Z,17.27
2018-03-20T19:03:48.007Z,18.67
2018-03-20T19:06:15.452Z,28.50
2018-03-20T19:08:42.930Z,30.20
2018-03-20T19:11:11.169Z,20.23
2018-03-20T19:13:38.613Z,22.33
2018-03-20T19:16:06.075Z,19.75
2018-03-20T19:18:33.546Z,20.52
2018-03-20T19:21:00.999Z,19.10
2018-03-20T19:23:28.452Z,20.23
2018-03-20T19:25:55.948Z,20.10
2018-03-20T19:28:23.412Z,24.73
2018-03-20T19:30:50.860Z,27.10
2018-03-20T19:33:18.311Z,26.00
2018-03-20T19:35:45.760Z,24.87
2018-03-20T19:38:13.212Z,21.90
2018-03-20T19:40:40.655Z,31.35
2018-03-20T19:43:08.116Z,22.62
2018-03-20T19:45:35.560Z,24.10
2018-03-20T19:48:03.020Z,20.80
2018-03-20T19:50:30.487Z,21.85
2018-03-20T19:52:57.953Z,26.92
2018-03-20T19:55:25.423Z,22.00
2018-03-20T19:57:52.876Z,23.67
2018-03-20T20:00:20.325Z,22.37
2018-03-20T20:02:47.806Z,22.90
2018-03-20T20:05:15.262Z,20.33
2018-03-20T20:07:42.700Z,21.62
2018-03-20T20:10:10.159Z,23.95
2018-03-20T20:12:37.620Z,25.30
2018-03-20T20:15:05.085Z,24.37
2018-03-20T20:17:32.540Z,23.90
2018-03-20T20:19:59.993Z,28.40
2018-03-20T20:22:27.432Z,23.20
2018-03-20T20:24:54.888Z,24.02
2018-03-20T20:27:22.343Z,24.55
2018-03-20T20:29:50.555Z,21.83
2018-03-20T20:32:18.009Z,25.25
2018-03-20T20:34:45.461Z,21.98
2018-03-20T20:37:12.928Z,20.55
2018-03-20T20:39:40.447Z,20.70
2018-03-20T20:42:07.839Z,23.80
2018-03-20T20:44:35.291Z,21.67
2018-03-20T20:47:02.741Z,24.17
2018-03-20T20:49:30.183Z,22.77
2018-03-20T20:51:57.645Z,22.62
2018-03-20T20:54:25.088Z,21.45
2018-03-20T20:56:52.546Z,22.70
2018-03-20T20:59:19.998Z,21.48
2018-03-20T21:01:47.478Z,24.85
2018-03-20T21:04:14.919Z,24.10
2018-03-20T21:06:42.383Z,24.52
2018-03-20T21:09:09.823Z,27.35
2018-03-20T21:11:37.284Z,23.58
2018-03-20T21:14:04.722Z,24.75
2018-03-20T21:16:32.185Z,21.00
2018-03-20T21:18:59.625Z,22.33
2018-03-20T21:21:27.091Z,21.23
2018-03-20T21:23:54.533Z,23.92
2018-03-20T21:26:22.772Z,25.67
2018-03-20T21:28:50.224Z,23.08
2018-03-20T21:31:17.663Z,29.75
2018-03-20T21:33:45.116Z,30.65
2018-03-20T21:36:12.567Z,26.40
2018-03-20T21:38:40.036Z,27.77
2018-03-20T21:41:07.488Z,26.12
2018-03-20T21:43:34.947Z,25.37
2018-03-20T21:46:02.395Z,25.80
2018-03-20T21:48:29.851Z,23.98
2018-03-20T21:50:57.307Z,24.90
2018-03-20T21:53:24.763Z,23.90
2018-03-20T21:55:52.205Z,23.87
2018-03-20T21:58:19.659Z,30.02
2018-03-20T22:00:47.111Z,23.20
2018-03-20T22:03:14.569Z,26.73
2018-03-20T22:05:42.017Z,25.17
2018-03-20T22:08:10.235Z,22.42
2018-03-20T22:10:37.720Z,23.23
2018-03-20T22:13:05.187Z,27.70
2018-03-20T22:15:32.643Z,23.42
2018-03-20T22:18:00.116Z,23.70
2018-03-20T22:20:27.560Z,24.80
2018-03-20T22:22:55.017Z,24.20
2018-03-20T22:25:22.463Z,24.40
2018-03-20T22:27:49.968Z,22.70
2018-03-20T22:30:17.368Z,24.90
2018-03-20T22:32:44.815Z,24.70
2018-03-20T22:35:12.268Z,25.27
2018-03-20T22:37:39.709Z,20.55
2018-03-20T22:40:07.172Z,23.27
2018-03-20T22:42:34.612Z,24.55
2018-03-20T22:45:02.077Z,20.37
2018-03-20T22:47:29.511Z,21.73
2018-03-20T22:49:57.739Z,24.90
2018-03-20T22:52:25.196Z,25.00
2018-03-20T22:54:52.652Z,26.85
2018-03-20T22:57:20.091Z,22.05
2018-03-20T22:59:47.544Z,23.55
2018-03-20T23:02:14.988Z,27.08
2018-03-20T23:04:42.454Z,21.98
2018-03-20T23:07:09.904Z,20.10
2018-03-20T23:09:37.376Z,25.80
2018-03-20T23:12:04.836Z,22.60
2018-03-20T23:14:32.276Z,20.45
2018-03-20T23:16:59.743Z,22.27
2018-03-20T23:19:27.188Z,25.27
2018-03-20T23:21:54.651Z,24.00
2018-03-20T23:24:22.103Z,20.65
2018-03-20T23:26:49.547Z,21.62
2018-03-20T23:29:17.002Z,19.15
2018-03-20T23:31:45.222Z,19.80
2018-03-20T23:34:12.674Z,21.45
2018-03-20T23:36:40.130Z,19.95
2018-03-20T23:39:07.577Z,19.20
2018-03-20T23:41:35.034Z,23.15
2018-03-20T23:44:02.477Z,24.48
2018-03-20T23:46:29.940Z,21.95
2018-03-20T23:48:57.392Z,27.60
2018-03-20T23:51:24.841Z,27.73
2018-03-20T23:53:52.288Z,26.27
2018-03-20T23:56:20.506Z,26.58
2018-03-20T23:58:47.949Z,27.20
